sensor_id;sensor_type;location;lat;lon;timestamp;P1;durP1;ratioP1;P2;durP2;ratioP2
48423;SDS011;34232;42.502;26.014;2022-12-26T00:01:48;1.80;;;1.53;;
48423;SDS011;34232;42.502;26.014;2022-12-26T00:04:14;4.27;;;2.47;;
48423;SDS011;34232;42.502;26.014;2022-12-26T00:06:40;5.97;;;2.85;;
48423;SDS011;34232;42.502;26.014;2022-12-26T00:09:06;3.60;;;1.70;;
48423;SDS011;34232;42.502;26.014;2022-12-26T00:11:32;5.27;;;2.13;;
48423;SDS011;34232;42.502;26.014;2022-12-26T00:14:00;6.88;;;2.70;;
48423;SDS011;34232;42.502;26.014;2022-12-26T00:16:31;15.93;;;5.37;;
48423;SDS011;34232;42.502;26.014;2022-12-26T00:18:57;24.03;;;10.83;;
48423;SDS011;34232;42.502;26.014;2022-12-26T00:21:23;20.47;;;8.97;;
48423;SDS011;34232;42.502;26.014;2022-12-26T00:23:51;19.60;;;9.03;;
48423;SDS011;34232;42.502;26.014;2022-12-26T00:26:17;15.03;;;8.37;;
48423;SDS011;34232;42.502;26.014;2022-12-26T00:28:44;12.87;;;6.60;;
48423;SDS011;34232;42.502;26.014;2022-12-26T00:31:14;14.47;;;6.90;;
48423;SDS011;34232;42.502;26.014;2022-12-26T00:33:41;9.17;;;4.77;;
48423;SDS011;34232;42.502;26.014;2022-12-26T00:36:12;10.17;;;5.00;;
48423;SDS011;34232;42.502;26.014;2022-12-26T00:38:39;7.70;;;4.40;;
48423;SDS011;34232;42.502;26.014;2022-12-26T00:41:05;8.68;;;3.75;;
48423;SDS011;34232;42.502;26.014;2022-12-26T00:43:32;12.10;;;6.28;;
48423;SDS011;34232;42.502;26.014;2022-12-26T00:45:57;13.93;;;5.10;;
48423;SDS011;34232;42.502;26.014;2022-12-26T00:48:23;6.53;;;3.07;;
48423;SDS011;34232;42.502;26.014;2022-12-26T00:50:48;9.80;;;2.50;;
48423;SDS011;34232;42.502;26.014;2022-12-26T00:53:14;4.13;;;2.27;;
48423;SDS011;34232;42.502;26.014;2022-12-26T00:55:40;6.97;;;2.50;;
48423;SDS011;34232;42.502;26.014;2022-12-26T00:58:05;4.77;;;2.37;;
48423;SDS011;34232;42.502;26.014;2022-12-26T01:00:31;4.77;;;2.83;;
48423;SDS011;34232;42.502;26.014;2022-12-26T01:02:56;3.67;;;2.03;;
48423;SDS011;34232;42.502;26.014;2022-12-26T01:05:22;6.30;;;1.90;;
48423;SDS011;34232;42.502;26.014;2022-12-26T01:07:47;4.07;;;1.80;;
48423;SDS011;34232;42.502;26.014;2022-12-26T01:10:12;5.57;;;2.20;;
48423;SDS011;34232;42.502;26.014;2022-12-26T01:12:38;5.83;;;2.60;;
48423;SDS011;34232;42.502;26.014;2022-12-26T01:15:04;4.27;;;2.60;;
48423;SDS011;34232;42.502;26.014;2022-12-26T01:17:30;5.45;;;2.45;;
48423;SDS011;34232;42.502;26.014;2022-12-26T01:19:56;3.60;;;2.03;;
48423;SDS011;34232;42.502;26.014;2022-12-26T01:22:22;3.77;;;2.23;;
48423;SDS011;34232;42.502;26.014;2022-12-26T01:24:52;4.67;;;1.70;;
48423;SDS011;34232;42.502;26.014;2022-12-26T01:27:18;3.87;;;1.63;;
48423;SDS011;34232;42.502;26.014;2022-12-26T01:29:43;4.20;;;2.10;;
48423;SDS011;34232;42.502;26.014;2022-12-26T01:32:10;2.95;;;1.30;;
48423;SDS011;34232;42.502;26.014;2022-12-26T01:34:35;4.13;;;2.20;;
48423;SDS011;34232;42.502;26.014;2022-12-26T01:37:01;2.73;;;1.60;;
48423;SDS011;34232;42.502;26.014;2022-12-26T01:39:26;3.37;;;1.30;;
48423;SDS011;34232;42.502;26.014;2022-12-26T01:41:52;2.73;;;0.93;;
48423;SDS011;34232;42.502;26.014;2022-12-26T01:47:20;2.63;;;1.20;;
48423;SDS011;34232;42.502;26.014;2022-12-26T01:49:49;2.90;;;1.10;;
48423;SDS011;34232;42.502;26.014;2022-12-26T01:52:41;3.03;;;0.87;;
48423;SDS011;34232;42.502;26.014;2022-12-26T01:55:07;2.37;;;1.10;;
48423;SDS011;34232;42.502;26.014;2022-12-26T01:57:46;1.17;;;0.90;;
48423;SDS011;34232;42.502;26.014;2022-12-26T02:00:18;3.37;;;1.57;;
48423;SDS011;34232;42.502;26.014;2022-12-26T02:02:43;4.60;;;1.10;;
48423;SDS011;34232;42.502;26.014;2022-12-26T02:05:29;3.07;;;1.07;;
48423;SDS011;34232;42.502;26.014;2022-12-26T02:08:02;1.47;;;1.00;;
48423;SDS011;34232;42.502;26.014;2022-12-26T02:11:11;2.20;;;0.70;;
48423;SDS011;34232;42.502;26.014;2022-12-26T02:13:38;1.73;;;0.93;;
48423;SDS011;34232;42.502;26.014;2022-12-26T02:16:04;2.92;;;0.77;;
48423;SDS011;34232;42.502;26.014;2022-12-26T02:18:33;1.87;;;0.97;;
48423;SDS011;34232;42.502;26.014;2022-12-26T02:41:59;6.67;;;3.77;;
48423;SDS011;34232;42.502;26.014;2022-12-26T02:44:41;4.63;;;1.90;;
48423;SDS011;34232;42.502;26.014;2022-12-26T02:56:05;5.03;;;2.20;;
48423;SDS011;34232;42.502;26.014;2022-12-26T02:59:00;3.63;;;2.23;;
48423;SDS011;34232;42.502;26.014;2022-12-26T03:01:51;1.63;;;1.10;;
48423;SDS011;34232;42.502;26.014;2022-12-26T03:04:40;4.27;;;1.30;;
48423;SDS011;34232;42.502;26.014;2022-12-26T03:07:29;2.03;;;1.65;;
48423;SDS011;34232;42.502;26.014;2022-12-26T03:10:20;10.60;;;2.07;;
48423;SDS011;34232;42.502;26.014;2022-12-26T03:13:09;2.60;;;1.90;;
48423;SDS011;34232;42.502;26.014;2022-12-26T03:18:42;5.77;;;1.87;;
48423;SDS011;34232;42.502;26.014;2022-12-26T03:21:11;3.57;;;1.60;;
48423;SDS011;34232;42.502;26.014;2022-12-26T03:23:40;3.10;;;1.17;;
48423;SDS011;34232;42.502;26.014;2022-12-26T03:26:11;6.00;;;2.80;;
48423;SDS011;34232;42.502;26.014;2022-12-26T03:28:57;10.93;;;1.60;;
48423;SDS011;34232;42.502;26.014;2022-12-26T03:31:42;6.23;;;2.60;;
48423;SDS011;34232;42.502;26.014;2022-12-26T03:34:08;2.83;;;1.30;;
48423;SDS011;34232;42.502;26.014;2022-12-26T03:42:23;6.57;;;2.23;;
48423;SDS011;34232;42.502;26.014;2022-12-26T03:51:14;9.07;;;3.63;;
48423;SDS011;34232;42.502;26.014;2022-12-26T03:54:09;8.20;;;3.60;;
48423;SDS011;34232;42.502;26.014;2022-12-26T03:56:59;3.40;;;1.43;;
48423;SDS011;34232;42.502;26.014;2022-12-26T03:59:57;8.93;;;2.67;;
48423;SDS011;34232;42.502;26.014;2022-12-26T04:02:47;7.87;;;2.50;;
48423;SDS011;34232;42.502;26.014;2022-12-26T04:05:34;4.27;;;1.43;;
48423;SDS011;34232;42.502;26.014;2022-12-26T04:11:33;10.67;;;2.27;;
48423;SDS011;34232;42.502;26.014;2022-12-26T04:14:33;9.15;;;4.63;;
48423;SDS011;34232;42.502;26.014;2022-12-26T04:17:43;7.40;;;2.47;;
48423;SDS011;34232;42.502;26.014;2022-12-26T04:24:02;8.27;;;2.97;;
48423;SDS011;34232;42.502;26.014;2022-12-26T04:26:53;7.73;;;3.20;;
48423;SDS011;34232;42.502;26.014;2022-12-26T04:29:40;4.75;;;1.98;;
48423;SDS011;34232;42.502;26.014;2022-12-26T04:35:47;5.43;;;2.87;;
48423;SDS011;34232;42.502;26.014;2022-12-26T04:38:36;5.83;;;2.77;;
48423;SDS011;34232;42.502;26.014;2022-12-26T04:41:25;5.50;;;2.33;;
48423;SDS011;34232;42.502;26.014;2022-12-26T04:44:11;6.47;;;2.93;;
48423;SDS011;34232;42.502;26.014;2022-12-26T04:46:38;4.13;;;2.38;;
48423;SDS011;34232;42.502;26.014;2022-12-26T04:49:08;4.97;;;3.13;;
48423;SDS011;34232;42.502;26.014;2022-12-26T04:51:56;14.57;;;5.83;;
48423;SDS011;34232;42.502;26.014;2022-12-26T04:54:23;11.80;;;4.00;;
48423;SDS011;34232;42.502;26.014;2022-12-26T04:56:49;11.48;;;3.97;;
48423;SDS011;34232;42.502;26.014;2022-12-26T04:59:15;5.00;;;3.23;;
48423;SDS011;34232;42.502;26.014;2022-12-26T05:01:41;3.88;;;2.50;;
48423;SDS011;34232;42.502;26.014;2022-12-26T05:04:25;4.43;;;2.60;;
48423;SDS011;34232;42.502;26.014;2022-12-26T05:07:20;3.20;;;2.13;;
48423;SDS011;34232;42.502;26.014;2022-12-26T05:10:07;6.13;;;3.60;;
48423;SDS011;34232;42.502;26.014;2022-12-26T05:12:41;7.07;;;2.87;;
48423;SDS011;34232;42.502;26.014;2022-12-26T05:15:06;8.30;;;4.43;;
48423;SDS011;34232;42.502;26.014;2022-12-26T05:17:32;15.57;;;8.43;;
48423;SDS011;34232;42.502;26.014;2022-12-26T05:20:16;14.33;;;8.23;;
48423;SDS011;34232;42.502;26.014;2022-12-26T05:22:53;11.52;;;8.45;;
48423;SDS011;34232;42.502;26.014;2022-12-26T05:25:38;11.13;;;7.30;;
48423;SDS011;34232;42.502;26.014;2022-12-26T05:28:25;10.93;;;7.30;;
48423;SDS011;34232;42.502;26.014;2022-12-26T05:31:06;4.53;;;4.10;;
48423;SDS011;34232;42.502;26.014;2022-12-26T05:33:36;13.07;;;5.20;;
48423;SDS011;34232;42.502;26.014;2022-12-26T05:36:20;10.73;;;4.37;;
48423;SDS011;34232;42.502;26.014;2022-12-26T05:38:48;15.83;;;5.97;;
48423;SDS011;34232;42.502;26.014;2022-12-26T05:41:16;12.53;;;5.90;;
48423;SDS011;34232;42.502;26.014;2022-12-26T05:43:42;9.60;;;5.57;;
48423;SDS011;34232;42.502;26.014;2022-12-26T05:46:07;9.00;;;4.53;;
48423;SDS011;34232;42.502;26.014;2022-12-26T05:48:33;20.23;;;7.27;;
48423;SDS011;34232;42.502;26.014;2022-12-26T05:50:59;12.87;;;5.33;;
48423;SDS011;34232;42.502;26.014;2022-12-26T05:53:25;11.18;;;4.75;;
48423;SDS011;34232;42.502;26.014;2022-12-26T05:55:51;11.07;;;4.40;;
48423;SDS011;34232;42.502;26.014;2022-12-26T05:58:17;11.77;;;5.30;;
48423;SDS011;34232;42.502;26.014;2022-12-26T06:00:42;9.97;;;4.63;;
48423;SDS011;34232;42.502;26.014;2022-12-26T06:03:07;6.83;;;3.40;;
48423;SDS011;34232;42.502;26.014;2022-12-26T06:05:33;8.50;;;2.87;;
48423;SDS011;34232;42.502;26.014;2022-12-26T06:07:58;4.30;;;2.57;;
48423;SDS011;34232;42.502;26.014;2022-12-26T06:10:24;5.20;;;2.37;;
48423;SDS011;34232;42.502;26.014;2022-12-26T06:12:51;6.65;;;3.63;;
48423;SDS011;34232;42.502;26.014;2022-12-26T06:15:17;5.63;;;2.15;;
48423;SDS011;34232;42.502;26.014;2022-12-26T06:17:43;4.30;;;2.00;;
48423;SDS011;34232;42.502;26.014;2022-12-26T06:20:08;5.03;;;2.10;;
48423;SDS011;34232;42.502;26.014;2022-12-26T06:22:34;2.50;;;1.10;;
48423;SDS011;34232;42.502;26.014;2022-12-26T06:25:00;3.33;;;2.10;;
48423;SDS011;34232;42.502;26.014;2022-12-26T06:27:26;5.77;;;3.60;;
48423;SDS011;34232;42.502;26.014;2022-12-26T06:29:52;5.40;;;2.47;;
48423;SDS011;34232;42.502;26.014;2022-12-26T06:32:17;11.50;;;6.63;;
48423;SDS011;34232;42.502;26.014;2022-12-26T06:34:43;9.43;;;6.57;;
48423;SDS011;34232;42.502;26.014;2022-12-26T06:37:08;5.07;;;3.77;;
48423;SDS011;34232;42.502;26.014;2022-12-26T06:39:34;4.90;;;2.40;;
48423;SDS011;34232;42.502;26.014;2022-12-26T06:41:59;6.10;;;2.50;;
48423;SDS011;34232;42.502;26.014;2022-12-26T06:44:24;6.47;;;1.10;;
48423;SDS011;34232;42.502;26.014;2022-12-26T06:46:50;3.27;;;2.07;;
48423;SDS011;34232;42.502;26.014;2022-12-26T06:49:15;5.27;;;2.37;;
48423;SDS011;34232;42.502;26.014;2022-12-26T06:51:41;4.23;;;2.23;;
48423;SDS011;34232;42.502;26.014;2022-12-26T06:54:09;4.63;;;2.07;;
48423;SDS011;34232;42.502;26.014;2022-12-26T06:56:34;4.10;;;2.20;;
48423;SDS011;34232;42.502;26.014;2022-12-26T06:59:01;3.90;;;2.20;;
48423;SDS011;34232;42.502;26.014;2022-12-26T07:01:28;7.57;;;2.70;;
48423;SDS011;34232;42.502;26.014;2022-12-26T07:03:55;3.23;;;2.70;;
48423;SDS011;34232;42.502;26.014;2022-12-26T07:08:46;6.20;;;3.83;;
48423;SDS011;34232;42.502;26.014;2022-12-26T07:11:12;5.10;;;2.63;;
48423;SDS011;34232;42.502;26.014;2022-12-26T07:16:04;7.80;;;3.47;;
48423;SDS011;34232;42.502;26.014;2022-12-26T07:18:29;2.83;;;1.93;;
48423;SDS011;34232;42.502;26.014;2022-12-26T07:20:55;9.17;;;2.37;;
48423;SDS011;34232;42.502;26.014;2022-12-26T07:23:20;2.80;;;2.07;;
48423;SDS011;34232;42.502;26.014;2022-12-26T07:25:46;4.70;;;2.53;;
48423;SDS011;34232;42.502;26.014;2022-12-26T07:28:12;4.72;;;3.15;;
48423;SDS011;34232;42.502;26.014;2022-12-26T07:30:38;6.05;;;3.05;;
48423;SDS011;34232;42.502;26.014;2022-12-26T07:33:04;6.60;;;2.57;;
48423;SDS011;34232;42.502;26.014;2022-12-26T07:35:29;4.23;;;2.27;;
48423;SDS011;34232;42.502;26.014;2022-12-26T07:37:55;3.05;;;1.92;;
48423;SDS011;34232;42.502;26.014;2022-12-26T07:40:20;5.53;;;2.75;;
48423;SDS011;34232;42.502;26.014;2022-12-26T07:42:45;8.50;;;2.60;;
48423;SDS011;34232;42.502;26.014;2022-12-26T07:45:11;4.60;;;1.95;;
48423;SDS011;34232;42.502;26.014;2022-12-26T07:47:36;7.87;;;2.87;;
48423;SDS011;34232;42.502;26.014;2022-12-26T07:50:02;6.55;;;3.47;;
48423;SDS011;34232;42.502;26.014;2022-12-26T07:52:27;4.77;;;2.90;;
48423;SDS011;34232;42.502;26.014;2022-12-26T07:54:56;3.43;;;2.07;;
48423;SDS011;34232;42.502;26.014;2022-12-26T07:57:21;5.73;;;3.17;;
48423;SDS011;34232;42.502;26.014;2022-12-26T07:59:46;5.93;;;2.93;;
48423;SDS011;34232;42.502;26.014;2022-12-26T08:02:12;7.07;;;2.90;;
48423;SDS011;34232;42.502;26.014;2022-12-26T08:04:37;4.63;;;2.93;;
48423;SDS011;34232;42.502;26.014;2022-12-26T08:07:03;4.30;;;2.87;;
48423;SDS011;34232;42.502;26.014;2022-12-26T08:09:28;4.17;;;3.33;;
48423;SDS011;34232;42.502;26.014;2022-12-26T08:11:53;4.07;;;2.50;;
48423;SDS011;34232;42.502;26.014;2022-12-26T08:14:19;5.68;;;2.65;;
48423;SDS011;34232;42.502;26.014;2022-12-26T08:16:44;9.00;;;2.40;;
48423;SDS011;34232;42.502;26.014;2022-12-26T08:19:10;4.60;;;3.13;;
48423;SDS011;34232;42.502;26.014;2022-12-26T08:21:36;5.60;;;2.55;;
48423;SDS011;34232;42.502;26.014;2022-12-26T08:24:01;6.43;;;3.13;;
48423;SDS011;34232;42.502;26.014;2022-12-26T08:26:27;2.35;;;2.13;;
48423;SDS011;34232;42.502;26.014;2022-12-26T08:28:53;5.93;;;2.67;;
48423;SDS011;34232;42.502;26.014;2022-12-26T08:31:23;4.68;;;2.42;;
48423;SDS011;34232;42.502;26.014;2022-12-26T08:33:48;7.93;;;2.83;;
48423;SDS011;34232;42.502;26.014;2022-12-26T08:36:14;2.93;;;2.03;;
48423;SDS011;34232;42.502;26.014;2022-12-26T08:38:43;2.70;;;1.88;;
48423;SDS011;34232;42.502;26.014;2022-12-26T08:41:09;4.87;;;2.73;;
48423;SDS011;34232;42.502;26.014;2022-12-26T08:43:35;5.20;;;2.00;;
48423;SDS011;34232;42.502;26.014;2022-12-26T08:46:02;5.17;;;2.37;;
48423;SDS011;34232;42.502;26.014;2022-12-26T08:48:29;4.45;;;2.25;;
48423;SDS011;34232;42.502;26.014;2022-12-26T08:51:00;3.05;;;2.53;;
48423;SDS011;34232;42.502;26.014;2022-12-26T08:53:31;7.43;;;2.95;;
48423;SDS011;34232;42.502;26.014;2022-12-26T08:55:59;3.08;;;2.10;;
48423;SDS011;34232;42.502;26.014;2022-12-26T08:58:25;7.47;;;3.70;;
48423;SDS011;34232;42.502;26.014;2022-12-26T09:00:51;4.60;;;2.10;;
48423;SDS011;34232;42.502;26.014;2022-12-26T09:03:16;4.40;;;2.50;;
48423;SDS011;34232;42.502;26.014;2022-12-26T09:05:42;8.63;;;2.70;;
48423;SDS011;34232;42.502;26.014;2022-12-26T09:08:08;4.13;;;2.57;;
48423;SDS011;34232;42.502;26.014;2022-12-26T09:10:34;4.88;;;2.05;;
48423;SDS011;34232;42.502;26.014;2022-12-26T09:12:59;28.93;;;9.47;;
48423;SDS011;34232;42.502;26.014;2022-12-26T09:15:25;3.07;;;2.20;;
48423;SDS011;34232;42.502;26.014;2022-12-26T09:17:50;3.53;;;1.20;;
48423;SDS011;34232;42.502;26.014;2022-12-26T09:20:16;9.60;;;1.87;;
48423;SDS011;34232;42.502;26.014;2022-12-26T09:22:41;4.03;;;1.80;;
48423;SDS011;34232;42.502;26.014;2022-12-26T09:25:16;6.88;;;2.05;;
48423;SDS011;34232;42.502;26.014;2022-12-26T09:27:45;4.22;;;1.80;;
48423;SDS011;34232;42.502;26.014;2022-12-26T09:30:11;10.00;;;2.65;;
48423;SDS011;34232;42.502;26.014;2022-12-26T09:32:37;3.43;;;2.60;;
48423;SDS011;34232;42.502;26.014;2022-12-26T09:35:03;9.63;;;2.87;;
48423;SDS011;34232;42.502;26.014;2022-12-26T09:37:29;6.88;;;2.50;;
48423;SDS011;34232;42.502;26.014;2022-12-26T09:39:54;8.70;;;4.27;;
48423;SDS011;34232;42.502;26.014;2022-12-26T09:45:12;4.15;;;2.90;;
48423;SDS011;34232;42.502;26.014;2022-12-26T09:50:28;7.90;;;2.97;;
48423;SDS011;34232;42.502;26.014;2022-12-26T09:53:03;5.75;;;3.95;;
48423;SDS011;34232;42.502;26.014;2022-12-26T10:01:04;13.70;;;5.97;;
48423;SDS011;34232;42.502;26.014;2022-12-26T10:03:40;9.80;;;4.95;;
48423;SDS011;34232;42.502;26.014;2022-12-26T10:06:18;9.35;;;4.07;;
48423;SDS011;34232;42.502;26.014;2022-12-26T10:14:26;14.55;;;5.53;;
48423;SDS011;34232;42.502;26.014;2022-12-26T10:24:56;12.10;;;5.13;;
48423;SDS011;34232;42.502;26.014;2022-12-26T10:27:25;7.53;;;4.05;;
48423;SDS011;34232;42.502;26.014;2022-12-26T10:30:01;6.50;;;4.25;;
48423;SDS011;34232;42.502;26.014;2022-12-26T10:32:32;4.05;;;2.92;;
48423;SDS011;34232;42.502;26.014;2022-12-26T10:35:19;9.68;;;3.42;;
48423;SDS011;34232;42.502;26.014;2022-12-26T10:37:51;4.95;;;3.15;;
48423;SDS011;34232;42.502;26.014;2022-12-26T10:48:22;5.05;;;3.20;;
48423;SDS011;34232;42.502;26.014;2022-12-26T10:50:51;4.38;;;3.38;;
48423;SDS011;34232;42.502;26.014;2022-12-26T10:53:17;7.93;;;3.37;;
48423;SDS011;34232;42.502;26.014;2022-12-26T10:55:42;10.03;;;4.80;;
48423;SDS011;34232;42.502;26.014;2022-12-26T11:00:52;3.53;;;2.63;;
48423;SDS011;34232;42.502;26.014;2022-12-26T11:03:18;6.60;;;2.37;;
48423;SDS011;34232;42.502;26.014;2022-12-26T11:05:46;8.25;;;3.25;;
48423;SDS011;34232;42.502;26.014;2022-12-26T11:11:29;8.70;;;3.03;;
48423;SDS011;34232;42.502;26.014;2022-12-26T11:16:59;2.72;;;1.95;;
48423;SDS011;34232;42.502;26.014;2022-12-26T11:19:30;3.35;;;2.20;;
48423;SDS011;34232;42.502;26.014;2022-12-26T11:24:44;4.07;;;2.38;;
48423;SDS011;34232;42.502;26.014;2022-12-26T11:27:17;16.83;;;5.87;;
48423;SDS011;34232;42.502;26.014;2022-12-26T11:29:44;5.35;;;2.97;;
48423;SDS011;34232;42.502;26.014;2022-12-26T11:32:13;5.30;;;2.43;;
48423;SDS011;34232;42.502;26.014;2022-12-26T11:34:45;7.35;;;3.80;;
48423;SDS011;34232;42.502;26.014;2022-12-26T11:37:45;5.30;;;2.15;;
48423;SDS011;34232;42.502;26.014;2022-12-26T11:40:21;5.97;;;2.20;;
48423;SDS011;34232;42.502;26.014;2022-12-26T11:42:51;3.25;;;2.60;;
48423;SDS011;34232;42.502;26.014;2022-12-26T11:45:21;6.60;;;3.63;;
48423;SDS011;34232;42.502;26.014;2022-12-26T11:47:49;4.57;;;2.60;;
48423;SDS011;34232;42.502;26.014;2022-12-26T11:50:17;10.02;;;3.35;;
48423;SDS011;34232;42.502;26.014;2022-12-26T12:00:32;5.68;;;2.83;;
48423;SDS011;34232;42.502;26.014;2022-12-26T12:03:19;7.80;;;4.93;;
48423;SDS011;34232;42.502;26.014;2022-12-26T12:30:19;6.28;;;2.17;;
48423;SDS011;34232;42.502;26.014;2022-12-26T12:43:15;19.65;;;16.10;;
48423;SDS011;34232;42.502;26.014;2022-12-26T12:57:06;6.70;;;3.22;;
48423;SDS011;34232;42.502;26.014;2022-12-26T13:02:04;12.93;;;2.65;;
48423;SDS011;34232;42.502;26.014;2022-12-26T13:04:57;7.32;;;2.38;;
48423;SDS011;34232;42.502;26.014;2022-12-26T13:07:31;3.25;;;1.75;;
48423;SDS011;34232;42.502;26.014;2022-12-26T13:10:04;4.97;;;2.60;;
48423;SDS011;34232;42.502;26.014;2022-12-26T13:12:38;9.32;;;2.40;;
48423;SDS011;34232;42.502;26.014;2022-12-26T13:15:08;5.57;;;2.17;;
48423;SDS011;34232;42.502;26.014;2022-12-26T13:20:23;4.07;;;1.67;;
48423;SDS011;34232;42.502;26.014;2022-12-26T13:22:54;2.58;;;1.10;;
48423;SDS011;34232;42.502;26.014;2022-12-26T13:25:45;3.42;;;1.80;;
48423;SDS011;34232;42.502;26.014;2022-12-26T13:28:18;4.40;;;1.65;;
48423;SDS011;34232;42.502;26.014;2022-12-26T13:30:55;12.18;;;2.97;;
48423;SDS011;34232;42.502;26.014;2022-12-26T13:33:20;2.95;;;2.22;;
48423;SDS011;34232;42.502;26.014;2022-12-26T13:35:59;2.72;;;1.60;;
48423;SDS011;34232;42.502;26.014;2022-12-26T13:41:19;6.97;;;2.80;;
48423;SDS011;34232;42.502;26.014;2022-12-26T13:44:04;10.18;;;4.50;;
48423;SDS011;34232;42.502;26.014;2022-12-26T13:49:01;8.02;;;2.40;;
48423;SDS011;34232;42.502;26.014;2022-12-26T13:51:40;6.60;;;3.38;;
48423;SDS011;34232;42.502;26.014;2022-12-26T13:54:08;6.47;;;2.90;;
48423;SDS011;34232;42.502;26.014;2022-12-26T14:05:11;12.75;;;11.45;;
48423;SDS011;34232;42.502;26.014;2022-12-26T14:08:02;15.38;;;8.93;;
48423;SDS011;34232;42.502;26.014;2022-12-26T14:10:42;10.07;;;4.95;;
48423;SDS011;34232;42.502;26.014;2022-12-26T14:16:18;59.85;;;30.20;;
48423;SDS011;34232;42.502;26.014;2022-12-26T14:35:08;39.17;;;17.80;;
48423;SDS011;34232;42.502;26.014;2022-12-26T14:40:29;26.67;;;13.45;;
48423;SDS011;34232;42.502;26.014;2022-12-26T15:06:36;41.60;;;18.48;;
48423;SDS011;34232;42.502;26.014;2022-12-26T15:18:15;42.05;;;21.60;;
48423;SDS011;34232;42.502;26.014;2022-12-26T15:31:53;42.92;;;22.20;;
48423;SDS011;34232;42.502;26.014;2022-12-26T16:01:46;5.65;;;1.98;;
48423;SDS011;34232;42.502;26.014;2022-12-26T16:04:16;3.88;;;1.77;;
48423;SDS011;34232;42.502;26.014;2022-12-26T16:09:46;10.18;;;4.20;;
48423;SDS011;34232;42.502;26.014;2022-12-26T16:12:24;17.08;;;3.78;;
48423;SDS011;34232;42.502;26.014;2022-12-26T16:17:35;15.57;;;3.47;;
48423;SDS011;34232;42.502;26.014;2022-12-26T16:23:19;5.65;;;3.38;;
48423;SDS011;34232;42.502;26.014;2022-12-26T16:25:49;5.97;;;2.03;;
48423;SDS011;34232;42.502;26.014;2022-12-26T16:28:18;5.65;;;3.22;;
48423;SDS011;34232;42.502;26.014;2022-12-26T16:30:54;26.20;;;11.50;;
48423;SDS011;34232;42.502;26.014;2022-12-26T16:35:46;23.60;;;11.48;;
48423;SDS011;34232;42.502;26.014;2022-12-26T16:38:26;20.13;;;12.30;;
48423;SDS011;34232;42.502;26.014;2022-12-26T16:40:54;9.52;;;5.00;;
48423;SDS011;34232;42.502;26.014;2022-12-26T16:43:23;9.38;;;3.67;;
48423;SDS011;34232;42.502;26.014;2022-12-26T16:45:52;6.18;;;3.40;;
48423;SDS011;34232;42.502;26.014;2022-12-26T16:48:23;7.63;;;4.90;;
48423;SDS011;34232;42.502;26.014;2022-12-26T16:51:00;12.68;;;7.28;;
48423;SDS011;34232;42.502;26.014;2022-12-26T16:58:34;29.92;;;15.38;;
48423;SDS011;34232;42.502;26.014;2022-12-26T17:03:39;32.10;;;17.25;;
48423;SDS011;34232;42.502;26.014;2022-12-26T17:06:10;35.25;;;19.08;;
48423;SDS011;34232;42.502;26.014;2022-12-26T17:08:44;25.38;;;16.55;;
48423;SDS011;34232;42.502;26.014;2022-12-26T17:11:11;29.98;;;13.07;;
48423;SDS011;34232;42.502;26.014;2022-12-26T17:13:37;22.80;;;13.17;;
48423;SDS011;34232;42.502;26.014;2022-12-26T17:16:04;22.93;;;12.27;;
48423;SDS011;34232;42.502;26.014;2022-12-26T17:24:03;14.40;;;8.13;;
48423;SDS011;34232;42.502;26.014;2022-12-26T17:26:36;16.90;;;7.93;;
48423;SDS011;34232;42.502;26.014;2022-12-26T17:29:02;14.70;;;7.72;;
48423;SDS011;34232;42.502;26.014;2022-12-26T17:34:00;26.47;;;8.93;;
48423;SDS011;34232;42.502;26.014;2022-12-26T17:36:31;21.55;;;9.50;;
48423;SDS011;34232;42.502;26.014;2022-12-26T17:41:34;22.17;;;10.40;;
48423;SDS011;34232;42.502;26.014;2022-12-26T17:43:59;18.25;;;10.23;;
48423;SDS011;34232;42.502;26.014;2022-12-26T17:46:24;26.13;;;11.53;;
48423;SDS011;34232;42.502;26.014;2022-12-26T17:48:50;25.53;;;10.53;;
48423;SDS011;34232;42.502;26.014;2022-12-26T17:51:15;23.55;;;9.70;;
48423;SDS011;34232;42.502;26.014;2022-12-26T17:53:46;23.65;;;11.07;;
48423;SDS011;34232;42.502;26.014;2022-12-26T17:56:14;23.80;;;12.03;;
48423;SDS011;34232;42.502;26.014;2022-12-26T17:58:41;23.10;;;9.77;;
48423;SDS011;34232;42.502;26.014;2022-12-26T18:01:07;29.23;;;10.30;;
48423;SDS011;34232;42.502;26.014;2022-12-26T18:03:32;21.30;;;11.27;;
48423;SDS011;34232;42.502;26.014;2022-12-26T18:05:58;22.85;;;12.65;;
48423;SDS011;34232;42.502;26.014;2022-12-26T18:10:48;20.25;;;11.65;;
48423;SDS011;34232;42.502;26.014;2022-12-26T18:13:14;23.17;;;12.95;;
48423;SDS011;34232;42.502;26.014;2022-12-26T18:15:40;45.63;;;24.42;;
48423;SDS011;34232;42.502;26.014;2022-12-26T18:18:07;41.67;;;20.23;;
48423;SDS011;34232;42.502;26.014;2022-12-26T18:20:44;34.60;;;18.70;;
48423;SDS011;34232;42.502;26.014;2022-12-26T18:23:10;34.17;;;12.93;;
48423;SDS011;34232;42.502;26.014;2022-12-26T18:25:35;42.87;;;16.57;;
48423;SDS011;34232;42.502;26.014;2022-12-26T18:28:01;39.95;;;15.52;;
48423;SDS011;34232;42.502;26.014;2022-12-26T18:30:27;47.50;;;16.07;;
48423;SDS011;34232;42.502;26.014;2022-12-26T18:32:52;38.87;;;17.93;;
48423;SDS011;34232;42.502;26.014;2022-12-26T18:35:18;31.50;;;14.93;;
48423;SDS011;34232;42.502;26.014;2022-12-26T18:37:45;37.60;;;16.40;;
48423;SDS011;34232;42.502;26.014;2022-12-26T18:40:27;49.63;;;18.37;;
48423;SDS011;34232;42.502;26.014;2022-12-26T18:42:52;34.83;;;16.43;;
48423;SDS011;34232;42.502;26.014;2022-12-26T18:45:18;43.50;;;19.60;;
48423;SDS011;34232;42.502;26.014;2022-12-26T18:47:43;51.83;;;26.90;;
48423;SDS011;34232;42.502;26.014;2022-12-26T18:50:09;58.27;;;29.30;;
48423;SDS011;34232;42.502;26.014;2022-12-26T18:52:36;56.33;;;30.20;;
48423;SDS011;34232;42.502;26.014;2022-12-26T18:55:02;58.27;;;27.77;;
48423;SDS011;34232;42.502;26.014;2022-12-26T18:57:27;56.83;;;27.33;;
48423;SDS011;34232;42.502;26.014;2022-12-26T18:59:53;56.13;;;28.73;;
48423;SDS011;34232;42.502;26.014;2022-12-26T19:02:18;73.70;;;34.63;;
48423;SDS011;34232;42.502;26.014;2022-12-26T19:04:44;86.87;;;42.43;;
48423;SDS011;34232;42.502;26.014;2022-12-26T19:07:14;90.07;;;39.93;;
48423;SDS011;34232;42.502;26.014;2022-12-26T19:09:44;91.83;;;45.33;;
48423;SDS011;34232;42.502;26.014;2022-12-26T19:12:10;86.43;;;46.83;;
48423;SDS011;34232;42.502;26.014;2022-12-26T19:14:36;88.90;;;45.87;;
48423;SDS011;34232;42.502;26.014;2022-12-26T19:17:01;93.13;;;47.83;;
48423;SDS011;34232;42.502;26.014;2022-12-26T19:19:27;80.47;;;39.80;;
48423;SDS011;34232;42.502;26.014;2022-12-26T19:21:54;90.85;;;37.92;;
48423;SDS011;34232;42.502;26.014;2022-12-26T19:24:20;70.53;;;34.00;;
48423;SDS011;34232;42.502;26.014;2022-12-26T19:26:46;69.67;;;32.33;;
48423;SDS011;34232;42.502;26.014;2022-12-26T19:29:11;55.50;;;26.93;;
48423;SDS011;34232;42.502;26.014;2022-12-26T19:31:36;52.87;;;24.37;;
48423;SDS011;34232;42.502;26.014;2022-12-26T19:34:05;53.00;;;24.70;;
48423;SDS011;34232;42.502;26.014;2022-12-26T19:36:30;42.27;;;20.53;;
48423;SDS011;34232;42.502;26.014;2022-12-26T19:38:56;34.60;;;18.53;;
48423;SDS011;34232;42.502;26.014;2022-12-26T19:41:21;41.60;;;17.93;;
48423;SDS011;34232;42.502;26.014;2022-12-26T19:43:46;37.27;;;17.63;;
48423;SDS011;34232;42.502;26.014;2022-12-26T19:46:12;39.60;;;18.47;;
48423;SDS011;34232;42.502;26.014;2022-12-26T19:48:42;32.10;;;15.70;;
48423;SDS011;34232;42.502;26.014;2022-12-26T19:51:09;39.53;;;19.80;;
48423;SDS011;34232;42.502;26.014;2022-12-26T19:53:37;41.50;;;18.73;;